sensor_id;sensor_type;location;lat;lon;timestamp;P1;durP1;ratioP1;P2;durP2;ratioP2
6689;SDS011;3382;51.576;8.076;2023-06-14T00:01:51;6.23;;;4.63;;
6689;SDS011;3382;51.576;8.076;2023-06-14T00:04:17;5.60;;;4.10;;
6689;SDS011;3382;51.576;8.076;2023-06-14T00:06:44;5.87;;;4.60;;
6689;SDS011;3382;51.576;8.076;2023-06-14T00:09:13;7.73;;;4.70;;
6689;SDS011;3382;51.576;8.076;2023-06-14T00:11:40;7.33;;;5.20;;
6689;SDS011;3382;51.576;8.076;2023-06-14T00:14:06;8.33;;;4.40;;
6689;SDS011;3382;51.576;8.076;2023-06-14T00:16:32;5.37;;;4.40;;
6689;SDS011;3382;51.576;8.076;2023-06-14T00:18:58;8.47;;;4.43;;
6689;SDS011;3382;51.576;8.076;2023-06-14T00:21:24;7.00;;;4.60;;
6689;SDS011;3382;51.576;8.076;2023-06-14T00:23:49;6.73;;;4.50;;
6689;SDS011;3382;51.576;8.076;2023-06-14T00:26:15;6.60;;;4.47;;
6689;SDS011;3382;51.576;8.076;2023-06-14T00:28:41;6.00;;;4.17;;
6689;SDS011;3382;51.576;8.076;2023-06-14T00:31:06;4.20;;;3.80;;
6689;SDS011;3382;51.576;8.076;2023-06-14T00:33:32;5.27;;;3.83;;
6689;SDS011;3382;51.576;8.076;2023-06-14T00:35:58;12.73;;;4.30;;
6689;SDS011;3382;51.576;8.076;2023-06-14T00:38:23;6.63;;;4.10;;
6689;SDS011;3382;51.576;8.076;2023-06-14T00:40:49;4.93;;;4.37;;
6689;SDS011;3382;51.576;8.076;2023-06-14T00:43:15;7.73;;;4.00;;
6689;SDS011;3382;51.576;8.076;2023-06-14T00:45:40;5.23;;;4.10;;
6689;SDS011;3382;51.576;8.076;2023-06-14T00:48:06;4.50;;;3.80;;
6689;SDS011;3382;51.576;8.076;2023-06-14T00:50:34;5.10;;;4.27;;
6689;SDS011;3382;51.576;8.076;2023-06-14T00:53:00;8.97;;;4.53;;
6689;SDS011;3382;51.576;8.076;2023-06-14T00:55:26;6.53;;;4.20;;
6689;SDS011;3382;51.576;8.076;2023-06-14T00:57:53;8.03;;;4.40;;
6689;SDS011;3382;51.576;8.076;2023-06-14T01:00:22;6.77;;;4.13;;
6689;SDS011;3382;51.576;8.076;2023-06-14T01:02:47;5.17;;;3.53;;
6689;SDS011;3382;51.576;8.076;2023-06-14T01:05:14;7.07;;;3.93;;
6689;SDS011;3382;51.576;8.076;2023-06-14T01:07:46;5.53;;;4.13;;
6689;SDS011;3382;51.576;8.076;2023-06-14T01:10:29;7.87;;;4.17;;
6689;SDS011;3382;51.576;8.076;2023-06-14T01:16:05;6.07;;;3.80;;
6689;SDS011;3382;51.576;8.076;2023-06-14T01:18:31;6.37;;;3.90;;
6689;SDS011;3382;51.576;8.076;2023-06-14T01:20:58;6.20;;;3.57;;
6689;SDS011;3382;51.576;8.076;2023-06-14T01:23:24;5.17;;;3.70;;
6689;SDS011;3382;51.576;8.076;2023-06-14T01:25:50;6.30;;;4.00;;
6689;SDS011;3382;51.576;8.076;2023-06-14T01:28:19;4.50;;;3.60;;
6689;SDS011;3382;51.576;8.076;2023-06-14T01:30:47;4.60;;;3.87;;
6689;SDS011;3382;51.576;8.076;2023-06-14T01:33:16;7.70;;;3.97;;
6689;SDS011;3382;51.576;8.076;2023-06-14T01:35:45;12.33;;;4.43;;
6689;SDS011;3382;51.576;8.076;2023-06-14T01:38:15;5.70;;;3.80;;
6689;SDS011;3382;51.576;8.076;2023-06-14T01:40:44;6.57;;;3.50;;
6689;SDS011;3382;51.576;8.076;2023-06-14T01:43:10;6.47;;;3.90;;
6689;SDS011;3382;51.576;8.076;2023-06-14T01:45:38;4.20;;;3.63;;
6689;SDS011;3382;51.576;8.076;2023-06-14T01:48:06;5.47;;;3.67;;
6689;SDS011;3382;51.576;8.076;2023-06-14T01:50:32;5.60;;;3.80;;
6689;SDS011;3382;51.576;8.076;2023-06-14T01:52:58;4.00;;;3.60;;
6689;SDS011;3382;51.576;8.076;2023-06-14T01:55:24;8.17;;;4.23;;
6689;SDS011;3382;51.576;8.076;2023-06-14T01:57:50;8.00;;;3.80;;
6689;SDS011;3382;51.576;8.076;2023-06-14T02:00:17;6.93;;;3.80;;
6689;SDS011;3382;51.576;8.076;2023-06-14T02:02:43;6.43;;;4.10;;
6689;SDS011;3382;51.576;8.076;2023-06-14T02:05:09;6.43;;;3.70;;
6689;SDS011;3382;51.576;8.076;2023-06-14T02:07:35;5.00;;;4.00;;
6689;SDS011;3382;51.576;8.076;2023-06-14T02:10:01;7.87;;;3.60;;
6689;SDS011;3382;51.576;8.076;2023-06-14T02:12:27;3.80;;;3.43;;
6689;SDS011;3382;51.576;8.076;2023-06-14T02:14:53;5.93;;;3.17;;
6689;SDS011;3382;51.576;8.076;2023-06-14T02:17:19;7.43;;;3.53;;
6689;SDS011;3382;51.576;8.076;2023-06-14T02:19:45;4.20;;;3.80;;
6689;SDS011;3382;51.576;8.076;2023-06-14T02:22:10;11.83;;;3.80;;
6689;SDS011;3382;51.576;8.076;2023-06-14T02:24:36;4.40;;;3.50;;
6689;SDS011;3382;51.576;8.076;2023-06-14T02:27:02;6.70;;;3.47;;
6689;SDS011;3382;51.576;8.076;2023-06-14T02:29:28;3.97;;;3.60;;
6689;SDS011;3382;51.576;8.076;2023-06-14T02:31:54;4.57;;;3.07;;
6689;SDS011;3382;51.576;8.076;2023-06-14T02:34:20;4.53;;;3.63;;
6689;SDS011;3382;51.576;8.076;2023-06-14T02:36:46;5.00;;;3.67;;
6689;SDS011;3382;51.576;8.076;2023-06-14T02:39:13;5.93;;;3.63;;
6689;SDS011;3382;51.576;8.076;2023-06-14T02:41:39;8.83;;;3.33;;
6689;SDS011;3382;51.576;8.076;2023-06-14T02:44:05;3.67;;;3.30;;
6689;SDS011;3382;51.576;8.076;2023-06-14T02:46:31;8.07;;;3.30;;
6689;SDS011;3382;51.576;8.076;2023-06-14T02:48:57;4.80;;;3.43;;
6689;SDS011;3382;51.576;8.076;2023-06-14T02:51:22;3.60;;;3.20;;
6689;SDS011;3382;51.576;8.076;2023-06-14T02:53:48;4.80;;;3.60;;
6689;SDS011;3382;51.576;8.076;2023-06-14T02:56:14;6.53;;;3.30;;
6689;SDS011;3382;51.576;8.076;2023-06-14T02:58:42;5.27;;;3.53;;
6689;SDS011;3382;51.576;8.076;2023-06-14T03:01:07;5.27;;;3.73;;
6689;SDS011;3382;51.576;8.076;2023-06-14T03:03:37;5.47;;;3.10;;
6689;SDS011;3382;51.576;8.076;2023-06-14T03:06:03;4.97;;;3.40;;
6689;SDS011;3382;51.576;8.076;2023-06-14T03:08:30;3.80;;;3.37;;
6689;SDS011;3382;51.576;8.076;2023-06-14T03:11:03;8.27;;;3.67;;
6689;SDS011;3382;51.576;8.076;2023-06-14T03:13:30;3.57;;;3.27;;
6689;SDS011;3382;51.576;8.076;2023-06-14T03:15:57;6.57;;;3.27;;
6689;SDS011;3382;51.576;8.076;2023-06-14T03:18:23;6.43;;;2.87;;
6689;SDS011;3382;51.576;8.076;2023-06-14T03:20:48;4.27;;;3.60;;
6689;SDS011;3382;51.576;8.076;2023-06-14T03:23:16;3.87;;;3.00;;
6689;SDS011;3382;51.576;8.076;2023-06-14T03:25:42;4.43;;;3.23;;
6689;SDS011;3382;51.576;8.076;2023-06-14T03:28:08;4.80;;;3.13;;
6689;SDS011;3382;51.576;8.076;2023-06-14T03:30:33;8.73;;;3.30;;
6689;SDS011;3382;51.576;8.076;2023-06-14T03:32:59;5.60;;;3.47;;
6689;SDS011;3382;51.576;8.076;2023-06-14T03:35:28;3.90;;;3.50;;
6689;SDS011;3382;51.576;8.076;2023-06-14T03:37:53;4.07;;;3.50;;
6689;SDS011;3382;51.576;8.076;2023-06-14T03:40:20;7.17;;;3.23;;
6689;SDS011;3382;51.576;8.076;2023-06-14T03:42:47;4.80;;;3.70;;
6689;SDS011;3382;51.576;8.076;2023-06-14T03:45:12;8.33;;;5.53;;
6689;SDS011;3382;51.576;8.076;2023-06-14T03:47:38;4.50;;;3.23;;
6689;SDS011;3382;51.576;8.076;2023-06-14T03:50:04;6.17;;;3.27;;
6689;SDS011;3382;51.576;8.076;2023-06-14T03:52:30;5.00;;;3.20;;
6689;SDS011;3382;51.576;8.076;2023-06-14T03:54:56;4.10;;;3.30;;
6689;SDS011;3382;51.576;8.076;2023-06-14T03:57:22;4.20;;;3.17;;
6689;SDS011;3382;51.576;8.076;2023-06-14T03:59:48;5.33;;;3.23;;
6689;SDS011;3382;51.576;8.076;2023-06-14T04:02:14;8.97;;;3.43;;
6689;SDS011;3382;51.576;8.076;2023-06-14T04:04:41;8.30;;;3.50;;
6689;SDS011;3382;51.576;8.076;2023-06-14T04:07:09;4.33;;;3.30;;
6689;SDS011;3382;51.576;8.076;2023-06-14T04:09:36;6.30;;;3.57;;
6689;SDS011;3382;51.576;8.076;2023-06-14T04:12:02;5.87;;;3.13;;
6689;SDS011;3382;51.576;8.076;2023-06-14T04:14:28;7.17;;;3.20;;
6689;SDS011;3382;51.576;8.076;2023-06-14T04:16:55;5.87;;;3.13;;
6689;SDS011;3382;51.576;8.076;2023-06-14T04:19:21;7.63;;;3.20;;
6689;SDS011;3382;51.576;8.076;2023-06-14T04:21:47;3.80;;;3.00;;
6689;SDS011;3382;51.576;8.076;2023-06-14T04:24:12;10.00;;;3.47;;
6689;SDS011;3382;51.576;8.076;2023-06-14T04:26:42;7.93;;;3.17;;
6689;SDS011;3382;51.576;8.076;2023-06-14T04:29:13;4.20;;;3.20;;
6689;SDS011;3382;51.576;8.076;2023-06-14T04:31:41;7.07;;;3.67;;
6689;SDS011;3382;51.576;8.076;2023-06-14T04:34:07;5.33;;;3.37;;
6689;SDS011;3382;51.576;8.076;2023-06-14T04:36:33;4.53;;;2.90;;
6689;SDS011;3382;51.576;8.076;2023-06-14T04:39:06;3.90;;;3.10;;
6689;SDS011;3382;51.576;8.076;2023-06-14T04:41:32;12.27;;;4.13;;
6689;SDS011;3382;51.576;8.076;2023-06-14T04:44:00;5.07;;;3.07;;
6689;SDS011;3382;51.576;8.076;2023-06-14T04:46:29;6.13;;;3.30;;
6689;SDS011;3382;51.576;8.076;2023-06-14T04:48:57;9.10;;;3.30;;
6689;SDS011;3382;51.576;8.076;2023-06-14T04:51:27;5.93;;;3.30;;
6689;SDS011;3382;51.576;8.076;2023-06-14T04:53:58;4.27;;;3.37;;
6689;SDS011;3382;51.576;8.076;2023-06-14T04:56:24;6.10;;;2.70;;
6689;SDS011;3382;51.576;8.076;2023-06-14T04:58:50;4.77;;;2.77;;
6689;SDS011;3382;51.576;8.076;2023-06-14T05:01:17;4.07;;;3.03;;
6689;SDS011;3382;51.576;8.076;2023-06-14T05:03:43;6.63;;;3.33;;
6689;SDS011;3382;51.576;8.076;2023-06-14T05:06:10;3.93;;;2.90;;
6689;SDS011;3382;51.576;8.076;2023-06-14T05:08:36;6.93;;;2.73;;
6689;SDS011;3382;51.576;8.076;2023-06-14T05:11:02;4.73;;;2.90;;
6689;SDS011;3382;51.576;8.076;2023-06-14T05:13:28;4.80;;;2.80;;
6689;SDS011;3382;51.576;8.076;2023-06-14T05:15:53;7.87;;;2.90;;
6689;SDS011;3382;51.576;8.076;2023-06-14T05:18:19;6.90;;;3.13;;
6689;SDS011;3382;51.576;8.076;2023-06-14T05:20:45;4.57;;;2.67;;
6689;SDS011;3382;51.576;8.076;2023-06-14T05:23:11;5.27;;;2.90;;
6689;SDS011;3382;51.576;8.076;2023-06-14T05:25:41;5.33;;;2.80;;
6689;SDS011;3382;51.576;8.076;2023-06-14T05:28:10;3.63;;;2.70;;
6689;SDS011;3382;51.576;8.076;2023-06-14T05:30:37;5.67;;;2.83;;
6689;SDS011;3382;51.576;8.076;2023-06-14T05:33:03;5.67;;;3.13;;
6689;SDS011;3382;51.576;8.076;2023-06-14T05:35:29;6.07;;;3.50;;
6689;SDS011;3382;51.576;8.076;2023-06-14T05:37:54;4.20;;;2.63;;
6689;SDS011;3382;51.576;8.076;2023-06-14T05:40:20;3.77;;;2.70;;
6689;SDS011;3382;51.576;8.076;2023-06-14T05:42:45;3.60;;;2.70;;
6689;SDS011;3382;51.576;8.076;2023-06-14T05:45:11;10.00;;;3.20;;
6689;SDS011;3382;51.576;8.076;2023-06-14T05:47:37;7.47;;;2.60;;
6689;SDS011;3382;51.576;8.076;2023-06-14T05:50:02;12.20;;;3.10;;
6689;SDS011;3382;51.576;8.076;2023-06-14T05:52:28;3.13;;;2.70;;
6689;SDS011;3382;51.576;8.076;2023-06-14T05:54:54;8.87;;;2.90;;
6689;SDS011;3382;51.576;8.076;2023-06-14T05:57:20;8.77;;;3.00;;
6689;SDS011;3382;51.576;8.076;2023-06-14T05:59:45;11.47;;;3.33;;
6689;SDS011;3382;51.576;8.076;2023-06-14T06:02:11;3.80;;;2.53;;
6689;SDS011;3382;51.576;8.076;2023-06-14T06:04:37;3.57;;;2.10;;
6689;SDS011;3382;51.576;8.076;2023-06-14T06:07:02;7.93;;;2.10;;
6689;SDS011;3382;51.576;8.076;2023-06-14T06:09:29;10.37;;;2.10;;
6689;SDS011;3382;51.576;8.076;2023-06-14T06:11:54;8.73;;;3.00;;
6689;SDS011;3382;51.576;8.076;2023-06-14T06:14:20;6.83;;;2.77;;
6689;SDS011;3382;51.576;8.076;2023-06-14T06:16:46;9.70;;;3.07;;
6689;SDS011;3382;51.576;8.076;2023-06-14T06:19:12;4.90;;;2.70;;
6689;SDS011;3382;51.576;8.076;2023-06-14T06:21:37;3.63;;;2.00;;
6689;SDS011;3382;51.576;8.076;2023-06-14T06:24:04;3.80;;;3.10;;
6689;SDS011;3382;51.576;8.076;2023-06-14T06:26:31;5.87;;;2.70;;
6689;SDS011;3382;51.576;8.076;2023-06-14T06:28:57;4.97;;;2.60;;
6689;SDS011;3382;51.576;8.076;2023-06-14T06:31:24;6.50;;;2.40;;
6689;SDS011;3382;51.576;8.076;2023-06-14T06:33:50;6.80;;;2.40;;
6689;SDS011;3382;51.576;8.076;2023-06-14T06:36:16;4.40;;;2.53;;
6689;SDS011;3382;51.576;8.076;2023-06-14T06:38:42;5.40;;;2.50;;
6689;SDS011;3382;51.576;8.076;2023-06-14T06:41:07;5.30;;;2.40;;
6689;SDS011;3382;51.576;8.076;2023-06-14T06:43:33;3.03;;;2.27;;
6689;SDS011;3382;51.576;8.076;2023-06-14T06:45:59;3.50;;;2.10;;
6689;SDS011;3382;51.576;8.076;2023-06-14T06:48:24;2.33;;;2.10;;
6689;SDS011;3382;51.576;8.076;2023-06-14T06:50:50;2.43;;;2.10;;
6689;SDS011;3382;51.576;8.076;2023-06-14T06:53:16;2.60;;;2.00;;
6689;SDS011;3382;51.576;8.076;2023-06-14T06:55:43;6.03;;;2.20;;
6689;SDS011;3382;51.576;8.076;2023-06-14T06:58:09;3.77;;;2.27;;
6689;SDS011;3382;51.576;8.076;2023-06-14T07:00:35;4.47;;;2.20;;
6689;SDS011;3382;51.576;8.076;2023-06-14T07:03:00;3.53;;;2.20;;
6689;SDS011;3382;51.576;8.076;2023-06-14T07:05:26;2.50;;;1.70;;
6689;SDS011;3382;51.576;8.076;2023-06-14T07:07:52;2.20;;;1.80;;
6689;SDS011;3382;51.576;8.076;2023-06-14T07:10:17;3.93;;;1.97;;
6689;SDS011;3382;51.576;8.076;2023-06-14T07:12:43;5.90;;;1.93;;
6689;SDS011;3382;51.576;8.076;2023-06-14T07:15:09;1.93;;;1.70;;
6689;SDS011;3382;51.576;8.076;2023-06-14T07:17:35;2.07;;;1.87;;
6689;SDS011;3382;51.576;8.076;2023-06-14T07:20:02;2.60;;;1.97;;
6689;SDS011;3382;51.576;8.076;2023-06-14T07:22:39;2.80;;;1.60;;
6689;SDS011;3382;51.576;8.076;2023-06-14T07:25:08;2.33;;;1.53;;
6689;SDS011;3382;51.576;8.076;2023-06-14T07:27:37;1.50;;;1.40;;
6689;SDS011;3382;51.576;8.076;2023-06-14T07:30:02;1.83;;;1.70;;
6689;SDS011;3382;51.576;8.076;2023-06-14T07:32:29;3.77;;;1.60;;
6689;SDS011;3382;51.576;8.076;2023-06-14T07:34:54;3.43;;;1.50;;
6689;SDS011;3382;51.576;8.076;2023-06-14T07:37:20;2.07;;;1.40;;
6689;SDS011;3382;51.576;8.076;2023-06-14T07:39:46;3.30;;;1.40;;
6689;SDS011;3382;51.576;8.076;2023-06-14T07:42:11;1.50;;;1.40;;
6689;SDS011;3382;51.576;8.076;2023-06-14T07:44:37;2.67;;;1.40;;
6689;SDS011;3382;51.576;8.076;2023-06-14T07:47:03;3.77;;;1.60;;
6689;SDS011;3382;51.576;8.076;2023-06-14T07:49:29;3.03;;;1.73;;
6689;SDS011;3382;51.576;8.076;2023-06-14T07:51:54;2.87;;;1.53;;
6689;SDS011;3382;51.576;8.076;2023-06-14T07:54:20;3.57;;;1.70;;
6689;SDS011;3382;51.576;8.076;2023-06-14T07:56:50;2.23;;;1.57;;
6689;SDS011;3382;51.576;8.076;2023-06-14T07:59:15;1.90;;;1.60;;
6689;SDS011;3382;51.576;8.076;2023-06-14T08:01:41;1.97;;;1.60;;
6689;SDS011;3382;51.576;8.076;2023-06-14T08:04:11;5.93;;;1.30;;
6689;SDS011;3382;51.576;8.076;2023-06-14T08:06:37;3.30;;;1.50;;
6689;SDS011;3382;51.576;8.076;2023-06-14T08:09:04;3.20;;;1.80;;
6689;SDS011;3382;51.576;8.076;2023-06-14T08:11:30;1.83;;;1.47;;
6689;SDS011;3382;51.576;8.076;2023-06-14T08:13:56;2.73;;;1.80;;
6689;SDS011;3382;51.576;8.076;2023-06-14T08:16:22;6.00;;;1.60;;
6689;SDS011;3382;51.576;8.076;2023-06-14T08:18:48;7.10;;;1.63;;
6689;SDS011;3382;51.576;8.076;2023-06-14T08:21:13;1.50;;;1.40;;
6689;SDS011;3382;51.576;8.076;2023-06-14T08:23:40;3.20;;;1.87;;
6689;SDS011;3382;51.576;8.076;2023-06-14T08:26:07;3.13;;;1.77;;
6689;SDS011;3382;51.576;8.076;2023-06-14T08:28:34;4.10;;;1.70;;
6689;SDS011;3382;51.576;8.076;2023-06-14T08:30:59;1.50;;;1.40;;
6689;SDS011;3382;51.576;8.076;2023-06-14T08:33:25;3.10;;;1.60;;
6689;SDS011;3382;51.576;8.076;2023-06-14T08:35:50;1.77;;;1.50;;
6689;SDS011;3382;51.576;8.076;2023-06-14T08:38:16;1.70;;;1.40;;
6689;SDS011;3382;51.576;8.076;2023-06-14T08:40:42;1.73;;;1.30;;
6689;SDS011;3382;51.576;8.076;2023-06-14T08:43:07;1.77;;;1.53;;
6689;SDS011;3382;51.576;8.076;2023-06-14T08:45:33;2.77;;;1.30;;
6689;SDS011;3382;51.576;8.076;2023-06-14T08:47:59;3.80;;;1.30;;
6689;SDS011;3382;51.576;8.076;2023-06-14T08:50:25;1.83;;;1.23;;
6689;SDS011;3382;51.576;8.076;2023-06-14T08:52:53;2.40;;;1.50;;
6689;SDS011;3382;51.576;8.076;2023-06-14T08:55:20;2.73;;;1.27;;
6689;SDS011;3382;51.576;8.076;2023-06-14T08:57:51;4.60;;;1.50;;
6689;SDS011;3382;51.576;8.076;2023-06-14T09:00:18;1.77;;;1.37;;
6689;SDS011;3382;51.576;8.076;2023-06-14T09:02:45;2.40;;;1.20;;
6689;SDS011;3382;51.576;8.076;2023-06-14T09:05:11;2.27;;;1.50;;
6689;SDS011;3382;51.576;8.076;2023-06-14T09:07:41;1.27;;;1.17;;
6689;SDS011;3382;51.576;8.076;2023-06-14T09:10:11;1.50;;;1.40;;
6689;SDS011;3382;51.576;8.076;2023-06-14T09:12:38;7.30;;;1.60;;
6689;SDS011;3382;51.576;8.076;2023-06-14T09:15:04;2.67;;;1.33;;
6689;SDS011;3382;51.576;8.076;2023-06-14T09:17:33;4.83;;;1.57;;
6689;SDS011;3382;51.576;8.076;2023-06-14T09:20:02;2.00;;;1.27;;
6689;SDS011;3382;51.576;8.076;2023-06-14T09:22:31;2.67;;;1.37;;
6689;SDS011;3382;51.576;8.076;2023-06-14T09:25:00;2.07;;;1.47;;
6689;SDS011;3382;51.576;8.076;2023-06-14T09:27:26;3.33;;;1.50;;
6689;SDS011;3382;51.576;8.076;2023-06-14T09:29:53;2.23;;;1.60;;
6689;SDS011;3382;51.576;8.076;2023-06-14T09:32:20;2.03;;;1.60;;
6689;SDS011;3382;51.576;8.076;2023-06-14T09:34:46;2.50;;;1.40;;
6689;SDS011;3382;51.576;8.076;2023-06-14T09:37:12;2.70;;;1.40;;
6689;SDS011;3382;51.576;8.076;2023-06-14T09:39:50;1.90;;;1.60;;
6689;SDS011;3382;51.576;8.076;2023-06-14T09:42:16;5.47;;;2.30;;
6689;SDS011;3382;51.576;8.076;2023-06-14T09:44:44;4.23;;;1.57;;
6689;SDS011;3382;51.576;8.076;2023-06-14T09:47:15;2.47;;;1.40;;
6689;SDS011;3382;51.576;8.076;2023-06-14T09:49:41;3.17;;;1.60;;
6689;SDS011;3382;51.576;8.076;2023-06-14T09:52:10;5.80;;;1.93;;
6689;SDS011;3382;51.576;8.076;2023-06-14T09:54:40;5.40;;;1.83;;
6689;SDS011;3382;51.576;8.076;2023-06-14T09:57:07;2.70;;;1.77;;
6689;SDS011;3382;51.576;8.076;2023-06-14T09:59:39;1.60;;;1.50;;
6689;SDS011;3382;51.576;8.076;2023-06-14T10:02:11;2.13;;;1.73;;
6689;SDS011;3382;51.576;8.076;2023-06-14T10:04:46;1.80;;;1.23;;
6689;SDS011;3382;51.576;8.076;2023-06-14T10:07:22;1.93;;;1.80;;
6689;SDS011;3382;51.576;8.076;2023-06-14T10:09:52;2.77;;;1.70;;
6689;SDS011;3382;51.576;8.076;2023-06-14T10:12:19;2.13;;;1.80;;
6689;SDS011;3382;51.576;8.076;2023-06-14T10:14:49;2.40;;;1.60;;
6689;SDS011;3382;51.576;8.076;2023-06-14T10:17:19;2.47;;;1.70;;
6689;SDS011;3382;51.576;8.076;2023-06-14T10:22:44;2.03;;;1.83;;
6689;SDS011;3382;51.576;8.076;2023-06-14T10:25:26;3.10;;;1.80;;
6689;SDS011;3382;51.576;8.076;2023-06-14T10:28:29;2.37;;;1.60;;
6689;SDS011;3382;51.576;8.076;2023-06-14T10:33:29;13.17;;;1.80;;
6689;SDS011;3382;51.576;8.076;2023-06-14T10:36:06;2.57;;;1.70;;
6689;SDS011;3382;51.576;8.076;2023-06-14T10:41:33;2.30;;;1.80;;
6689;SDS011;3382;51.576;8.076;2023-06-14T10:44:11;2.73;;;1.70;;
6689;SDS011;3382;51.576;8.076;2023-06-14T10:47:00;2.27;;;1.60;;
6689;SDS011;3382;51.576;8.076;2023-06-14T10:49:42;1.70;;;1.60;;
6689;SDS011;3382;51.576;8.076;2023-06-14T10:52:13;1.60;;;1.40;;
6689;SDS011;3382;51.576;8.076;2023-06-14T10:57:30;6.17;;;2.10;;
6689;SDS011;3382;51.576;8.076;2023-06-14T11:00:00;4.80;;;1.90;;
6689;SDS011;3382;51.576;8.076;2023-06-14T11:05:14;3.40;;;1.93;;
6689;SDS011;3382;51.576;8.076;2023-06-14T11:10:39;5.47;;;1.90;;
6689;SDS011;3382;51.576;8.076;2023-06-14T11:13:05;2.83;;;1.90;;
6689;SDS011;3382;51.576;8.076;2023-06-14T11:15:31;3.53;;;1.90;;
6689;SDS011;3382;51.576;8.076;2023-06-14T11:18:05;2.03;;;1.83;;
6689;SDS011;3382;51.576;8.076;2023-06-14T11:20:33;2.90;;;1.83;;
6689;SDS011;3382;51.576;8.076;2023-06-14T11:23:00;2.67;;;1.90;;
6689;SDS011;3382;51.576;8.076;2023-06-14T11:25:26;3.40;;;1.80;;
6689;SDS011;3382;51.576;8.076;2023-06-14T11:27:55;2.20;;;1.93;;
6689;SDS011;3382;51.576;8.076;2023-06-14T11:30:21;2.43;;;1.40;;
6689;SDS011;3382;51.576;8.076;2023-06-14T11:32:48;2.97;;;2.20;;
6689;SDS011;3382;51.576;8.076;2023-06-14T11:35:15;1.87;;;1.63;;
6689;SDS011;3382;51.576;8.076;2023-06-14T11:37:41;2.10;;;1.90;;
6689;SDS011;3382;51.576;8.076;2023-06-14T11:40:08;2.13;;;1.90;;
6689;SDS011;3382;51.576;8.076;2023-06-14T11:42:35;5.83;;;1.90;;
6689;SDS011;3382;51.576;8.076;2023-06-14T11:45:02;2.30;;;2.00;;
6689;SDS011;3382;51.576;8.076;2023-06-14T11:47:33;3.53;;;1.63;;
6689;SDS011;3382;51.576;8.076;2023-06-14T11:49:59;3.97;;;2.17;;
6689;SDS011;3382;51.576;8.076;2023-06-14T11:52:26;1.80;;;1.70;;
6689;SDS011;3382;51.576;8.076;2023-06-14T11:54:52;2.50;;;2.13;;
6689;SDS011;3382;51.576;8.076;2023-06-14T11:57:18;1.57;;;1.30;;
6689;SDS011;3382;51.576;8.076;2023-06-14T11:59:44;1.40;;;1.30;;
6689;SDS011;3382;51.576;8.076;2023-06-14T12:02:14;2.43;;;2.03;;
6689;SDS011;3382;51.576;8.076;2023-06-14T12:04:44;5.40;;;1.70;;
6689;SDS011;3382;51.576;8.076;2023-06-14T12:07:13;2.20;;;1.90;;
6689;SDS011;3382;51.576;8.076;2023-06-14T12:10:03;2.90;;;1.80;;
6689;SDS011;3382;51.576;8.076;2023-06-14T12:12:34;3.97;;;2.03;;
6689;SDS011;3382;51.576;8.076;2023-06-14T12:15:02;5.20;;;2.90;;
6689;SDS011;3382;51.576;8.076;2023-06-14T12:17:32;2.57;;;1.70;;
6689;SDS011;3382;51.576;8.076;2023-06-14T12:22:39;1.60;;;1.50;;
6689;SDS011;3382;51.576;8.076;2023-06-14T12:25:35;5.33;;;3.07;;
6689;SDS011;3382;51.576;8.076;2023-06-14T12:28:05;5.67;;;1.77;;
6689;SDS011;3382;51.576;8.076;2023-06-14T12:30:31;3.27;;;1.80;;
6689;SDS011;3382;51.576;8.076;2023-06-14T12:32:57;3.10;;;1.80;;
6689;SDS011;3382;51.576;8.076;2023-06-14T12:35:23;7.30;;;2.43;;
6689;SDS011;3382;51.576;8.076;2023-06-14T12:37:48;4.63;;;2.20;;
6689;SDS011;3382;51.576;8.076;2023-06-14T12:40:14;3.13;;;1.97;;
6689;SDS011;3382;51.576;8.076;2023-06-14T12:42:40;3.10;;;1.97;;
6689;SDS011;3382;51.576;8.076;2023-06-14T12:45:08;2.47;;;1.87;;
6689;SDS011;3382;51.576;8.076;2023-06-14T12:47:34;1.87;;;1.77;;
6689;SDS011;3382;51.576;8.076;2023-06-14T12:50:00;1.90;;;1.70;;
6689;SDS011;3382;51.576;8.076;2023-06-14T12:52:26;5.33;;;2.00;;
6689;SDS011;3382;51.576;8.076;2023-06-14T12:54:52;1.13;;;1.03;;
6689;SDS011;3382;51.576;8.076;2023-06-14T12:57:17;4.47;;;1.70;;
6689;SDS011;3382;51.576;8.076;2023-06-14T12:59:43;6.70;;;2.00;;
6689;SDS011;3382;51.576;8.076;2023-06-14T13:04:37;2.57;;;2.13;;
6689;SDS011;3382;51.576;8.076;2023-06-14T13:07:03;1.90;;;1.70;;
6689;SDS011;3382;51.576;8.076;2023-06-14T13:09:29;1.37;;;1.27;;
6689;SDS011;3382;51.576;8.076;2023-06-14T13:11:54;4.03;;;1.90;;
6689;SDS011;3382;51.576;8.076;2023-06-14T13:14:20;2.37;;;1.23;;
6689;SDS011;3382;51.576;8.076;2023-06-14T13:16:45;1.80;;;1.70;;
6689;SDS011;3382;51.576;8.076;2023-06-14T13:19:11;2.53;;;1.97;;
6689;SDS011;3382;51.576;8.076;2023-06-14T13:21:37;5.97;;;2.50;;
6689;SDS011;3382;51.576;8.076;2023-06-14T13:24:02;1.70;;;1.50;;
6689;SDS011;3382;51.576;8.076;2023-06-14T13:26:28;1.83;;;1.63;;
6689;SDS011;3382;51.576;8.076;2023-06-14T13:28:54;2.57;;;1.97;;
6689;SDS011;3382;51.576;8.076;2023-06-14T13:31:19;1.77;;;1.40;;
6689;SDS011;3382;51.576;8.076;2023-06-14T13:33:45;4.13;;;1.83;;
6689;SDS011;3382;51.576;8.076;2023-06-14T13:36:10;4.83;;;1.87;;
6689;SDS011;3382;51.576;8.076;2023-06-14T13:38:36;4.93;;;1.80;;
6689;SDS011;3382;51.576;8.076;2023-06-14T13:41:02;3.47;;;2.27;;
6689;SDS011;3382;51.576;8.076;2023-06-14T13:43:27;2.27;;;1.80;;
6689;SDS011;3382;51.576;8.076;2023-06-14T13:45:53;4.23;;;2.43;;
6689;SDS011;3382;51.576;8.076;2023-06-14T13:48:19;1.73;;;1.63;;
6689;SDS011;3382;51.576;8.076;2023-06-14T13:50:44;10.63;;;1.77;;
6689;SDS011;3382;51.576;8.076;2023-06-14T13:53:11;1.87;;;1.47;;
6689;SDS011;3382;51.576;8.076;2023-06-14T13:55:36;1.30;;;1.20;;
6689;SDS011;3382;51.576;8.076;2023-06-14T13:58:02;2.77;;;1.60;;
6689;SDS011;3382;51.576;8.076;2023-06-14T14:00:28;7.53;;;2.23;;
6689;SDS011;3382;51.576;8.076;2023-06-14T14:02:53;1.73;;;1.53;;
6689;SDS011;3382;51.576;8.076;2023-06-14T14:05:19;3.33;;;1.80;;
6689;SDS011;3382;51.576;8.076;2023-06-14T14:07:45;3.47;;;1.80;;
6689;SDS011;3382;51.576;8.076;2023-06-14T14:10:11;4.33;;;1.63;;
6689;SDS011;3382;51.576;8.076;2023-06-14T14:12:38;3.20;;;1.70;;
6689;SDS011;3382;51.576;8.076;2023-06-14T14:15:04;2.33;;;1.60;;
6689;SDS011;3382;51.576;8.076;2023-06-14T14:17:37;2.83;;;1.70;;
6689;SDS011;3382;51.576;8.076;2023-06-14T14:20:03;4.37;;;2.03;;
6689;SDS011;3382;51.576;8.076;2023-06-14T14:22:29;3.83;;;2.00;;
6689;SDS011;3382;51.576;8.076;2023-06-14T14:24:54;6.40;;;1.90;;
6689;SDS011;3382;51.576;8.076;2023-06-14T14:27:20;5.40;;;2.10;;
6689;SDS011;3382;51.576;8.076;2023-06-14T14:29:46;2.03;;;1.60;;
6689;SDS011;3382;51.576;8.076;2023-06-14T14:32:11;2.07;;;1.63;;
6689;SDS011;3382;51.576;8.076;2023-06-14T14:34:39;3.43;;;1.97;;
6689;SDS011;3382;51.576;8.076;2023-06-14T14:37:05;4.00;;;2.00;;
6689;SDS011;3382;51.576;8.076;2023-06-14T14:39:30;4.27;;;2.00;;
6689;SDS011;3382;51.576;8.076;2023-06-14T14:41:56;2.87;;;1.90;;
6689;SDS011;3382;51.576;8.076;2023-06-14T14:44:21;5.97;;;1.77;;
6689;SDS011;3382;51.576;8.076;2023-06-14T14:46:47;2.30;;;2.10;;
6689;SDS011;3382;51.576;8.076;2023-06-14T14:49:13;1.63;;;1.53;;
6689;SDS011;3382;51.576;8.076;2023-06-14T14:51:38;2.00;;;1.90;;
6689;SDS011;3382;51.576;8.076;2023-06-14T14:54:04;2.10;;;1.90;;
6689;SDS011;3382;51.576;8.076;2023-06-14T14:56:31;2.27;;;1.60;;
6689;SDS011;3382;51.576;8.076;2023-06-14T14:58:56;2.23;;;1.63;;
6689;SDS011;3382;51.576;8.076;2023-06-14T15:01:22;1.70;;;1.60;;
6689;SDS011;3382;51.576;8.076;2023-06-14T15:03:48;2.70;;;2.00;;
6689;SDS011;3382;51.576;8.076;2023-06-14T15:06:13;2.33;;;1.70;;
6689;SDS011;3382;51.576;8.076;2023-06-14T15:08:39;2.70;;;2.00;;
6689;SDS011;3382;51.576;8.076;2023-06-14T15:11:05;1.70;;;1.60;;
6689;SDS011;3382;51.576;8.076;2023-06-14T15:13:31;2.43;;;1.73;;
6689;SDS011;3382;51.576;8.076;2023-06-14T15:15:57;3.13;;;1.30;;
6689;SDS011;3382;51.576;8.076;2023-06-14T15:18:22;2.63;;;1.80;;
6689;SDS011;3382;51.576;8.076;2023-06-14T15:20:48;2.17;;;1.97;;
6689;SDS011;3382;51.576;8.076;2023-06-14T15:23:14;4.87;;;1.50;;
6689;SDS011;3382;51.576;8.076;2023-06-14T15:25:44;2.90;;;1.60;;
6689;SDS011;3382;51.576;8.076;2023-06-14T15:28:11;4.47;;;1.63;;
6689;SDS011;3382;51.576;8.076;2023-06-14T15:30:37;3.37;;;1.70;;
6689;SDS011;3382;51.576;8.076;2023-06-14T15:33:03;5.13;;;2.03;;
6689;SDS011;3382;51.576;8.076;2023-06-14T15:35:28;1.80;;;1.60;;
6689;SDS011;3382;51.576;8.076;2023-06-14T15:37:54;3.83;;;1.67;;
6689;SDS011;3382;51.576;8.076;2023-06-14T15:40:20;1.70;;;1.60;;